Terminal Aerodrome Forecast
Issued by NWS

Home | Current Version | Previous Version | Text Only | Print | Product List | Glossary On
Versions: 1 2 3 4 5 6 7 8 9 10 11 12 13 14
000
FTUS44 KBMX 020500
TAFTOI
TAF
KTOI 020536Z 0206/0306 VRB05KT 4SM -RA BR OVC005
     FM020800 VRB03KT 1SM BR VCSH OVC002
     FM021500 VRB03KT 5SM -DZ BR OVC007=

USA.gov is the U.S. government's official web portal to all federal, state and local government web resources and services.